createdAt,value
2022-10-12T06:49:33.378Z,3.80
2022-10-12T06:50:34.379Z,3.86
2022-10-12T06:51:34.381Z,3.89
2022-10-12T06:52:34.359Z,3.93
2022-10-12T06:53:34.361Z,3.96
2022-10-12T06:54:34.314Z,3.99
2022-10-12T06:55:34.242Z,4.02
2022-10-12T06:56:34.253Z,4.04
2022-10-12T06:57:34.257Z,4.07
2022-10-12T06:58:34.238Z,4.10
2022-10-12T06:59:34.330Z,4.11
2022-10-12T07:00:34.223Z,4.14
2022-10-12T07:01:34.257Z,4.16
2022-10-12T07:02:34.208Z,4.18
2022-10-12T07:03:34.196Z,4.21
2022-10-12T07:04:34.241Z,4.26
2022-10-12T07:05:34.183Z,4.31
2022-10-12T07:06:34.147Z,4.34
2022-10-12T07:07:34.194Z,4.35
2022-10-12T07:08:34.130Z,4.42
2022-10-12T07:09:34.140Z,4.46
2022-10-12T07:10:34.143Z,4.51
2022-10-12T07:11:34.094Z,4.57
2022-10-12T07:12:34.075Z,4.64
2022-10-12T07:13:34.095Z,4.71
2022-10-12T07:14:34.096Z,4.77
2022-10-12T07:15:34.054Z,4.86
2022-10-12T07:16:34.017Z,4.91
2022-10-12T07:17:34.022Z,4.96
2022-10-12T07:18:34.023Z,5.02
2022-10-12T07:19:34.068Z,5.06
2022-10-12T07:20:34.003Z,5.15
2022-10-12T07:21:34.028Z,5.24
2022-10-12T07:22:33.981Z,5.26
2022-10-12T07:23:33.988Z,5.29
2022-10-12T07:24:33.969Z,5.33
2022-10-12T07:25:33.940Z,5.40
2022-10-12T07:26:33.928Z,5.47
2022-10-12T07:27:33.934Z,5.58
2022-10-12T07:28:34.005Z,5.66
2022-10-12T07:29:33.969Z,5.73
2022-10-12T07:30:33.947Z,5.78
2022-10-12T07:31:33.852Z,5.85
2022-10-12T07:32:33.897Z,5.90
2022-10-12T07:33:33.900Z,5.95
2022-10-12T07:34:33.864Z,6.01
2022-10-12T07:35:33.883Z,6.08
2022-10-12T07:36:57.565Z,6.13
2022-10-12T07:37:33.862Z,6.19
2022-10-12T07:38:33.800Z,6.21
2022-10-12T07:39:33.817Z,6.25
2022-10-12T07:40:33.776Z,6.30
2022-10-12T07:41:33.799Z,6.36
2022-10-12T07:42:33.762Z,6.43
2022-10-12T07:43:33.747Z,6.50
2022-10-12T07:44:33.770Z,6.60
2022-10-12T07:45:33.767Z,6.71
2022-10-12T07:46:33.697Z,6.76
2022-10-12T07:47:33.694Z,6.81
2022-10-12T07:48:33.705Z,6.86
2022-10-12T07:49:33.675Z,6.89
2022-10-12T07:50:33.660Z,6.91
2022-10-12T07:51:33.659Z,6.96
2022-10-12T07:52:33.618Z,6.97
2022-10-12T07:53:33.626Z,6.99
2022-10-12T07:54:33.680Z,7.00
2022-10-12T07:55:33.648Z,7.04
2022-10-12T07:56:33.685Z,7.07
2022-10-12T07:57:33.590Z,7.07
2022-10-12T07:58:33.581Z,7.11
2022-10-12T07:59:33.587Z,7.11
2022-10-12T08:00:33.530Z,7.09
2022-10-12T08:01:33.555Z,7.04
2022-10-12T08:02:33.520Z,7.00
2022-10-12T08:03:33.510Z,6.99
2022-10-12T08:04:33.532Z,6.99
2022-10-12T08:05:33.475Z,7.00
2022-10-12T08:06:33.486Z,7.00
2022-10-12T08:07:33.501Z,6.99
2022-10-12T08:08:33.499Z,7.01
2022-10-12T08:09:33.467Z,7.07
2022-10-12T08:10:33.517Z,7.09
2022-10-12T08:11:33.433Z,7.14
2022-10-12T08:12:33.392Z,7.15
2022-10-12T08:13:33.400Z,7.18
2022-10-12T08:14:33.408Z,7.23
2022-10-12T08:15:33.388Z,7.29
2022-10-12T08:16:33.358Z,7.34
2022-10-12T08:17:33.379Z,7.39
2022-10-12T08:18:33.405Z,7.42
2022-10-12T08:19:35.449Z,7.50
2022-10-12T08:20:33.330Z,7.54
2022-10-12T08:21:33.297Z,7.57
2022-10-12T08:22:33.309Z,7.62
2022-10-12T08:23:33.272Z,7.71
2022-10-12T08:24:33.398Z,7.81
2022-10-12T08:25:33.273Z,7.85
2022-10-12T08:26:33.261Z,7.92
2022-10-12T08:27:33.225Z,7.92
2022-10-12T08:28:33.283Z,8.00
2022-10-12T08:29:33.247Z,8.06
2022-10-12T08:30:33.317Z,8.09
2022-10-12T08:31:33.215Z,8.20
2022-10-12T08:32:33.228Z,8.27
2022-10-12T08:33:33.179Z,8.36
2022-10-12T08:34:33.191Z,8.42
2022-10-12T08:35:33.172Z,8.46
2022-10-12T08:36:33.141Z,8.52
2022-10-12T08:37:33.125Z,8.57
2022-10-12T08:38:33.142Z,8.63
2022-10-12T08:39:33.132Z,8.71
2022-10-12T08:40:33.106Z,8.82
2022-10-12T08:41:33.148Z,8.89
2022-10-12T08:42:33.182Z,8.97
2022-10-12T08:43:33.114Z,9.00
2022-10-12T08:44:33.126Z,9.00
2022-10-12T08:45:33.039Z,9.08
2022-10-12T08:46:33.050Z,9.20
2022-10-12T08:47:33.017Z,9.31
2022-10-12T08:48:33.031Z,9.40
2022-10-12T08:49:33.077Z,9.49
2022-10-12T08:50:32.977Z,9.58
2022-10-12T08:51:33.009Z,9.59
2022-10-12T08:52:32.967Z,9.67
2022-10-12T08:53:32.997Z,9.78
2022-10-12T08:54:32.947Z,9.91
2022-10-12T08:55:32.932Z,9.99
2022-10-12T08:56:32.918Z,9.96
2022-10-12T08:57:32.942Z,10.04
2022-10-12T08:58:32.940Z,10.06
2022-10-12T08:59:32.926Z,10.13
2022-10-12T09:01:32.966Z,10.26
2022-10-12T09:02:32.853Z,10.28
2022-10-12T09:03:32.894Z,10.29
2022-10-12T09:04:32.861Z,10.39
2022-10-12T09:05:32.872Z,10.52
2022-10-12T09:06:32.842Z,10.63
2022-10-12T09:07:32.799Z,10.63
2022-10-12T09:08:32.783Z,10.63
2022-10-12T09:09:32.792Z,10.63
2022-10-12T09:10:32.776Z,10.69
2022-10-12T09:11:32.796Z,10.65
2022-10-12T09:12:32.728Z,10.55
2022-10-12T09:13:32.764Z,10.52
2022-10-12T09:14:32.773Z,10.60
2022-10-12T09:15:32.688Z,10.69
2022-10-12T09:16:32.750Z,10.78
2022-10-12T09:17:32.732Z,10.83
2022-10-12T09:18:35.898Z,10.90
2022-10-12T09:19:32.745Z,10.99
2022-10-12T09:20:32.691Z,11.06
2022-10-12T09:21:32.676Z,11.09
2022-10-12T09:22:32.639Z,11.12
2022-10-12T09:23:32.623Z,11.17
2022-10-12T09:24:32.686Z,11.24
2022-10-12T09:25:32.607Z,11.27
2022-10-12T09:26:32.583Z,11.36
2022-10-12T09:27:32.624Z,11.38
2022-10-12T09:28:32.918Z,11.38
2022-10-12T09:29:32.889Z,11.46
2022-10-12T09:30:32.535Z,11.48
2022-10-12T09:31:32.588Z,11.42
2022-10-12T09:32:32.535Z,11.46
2022-10-12T09:33:32.549Z,11.57
2022-10-12T09:34:32.541Z,11.67
2022-10-12T09:35:32.509Z,11.78
2022-10-12T09:36:32.497Z,11.88
2022-10-12T09:37:32.499Z,11.93
2022-10-12T09:38:32.458Z,11.85
2022-10-12T09:39:32.474Z,11.98
2022-10-12T09:40:32.454Z,12.03
2022-10-12T09:41:32.418Z,12.07
2022-10-12T09:42:32.472Z,12.18
2022-10-12T09:43:32.407Z,12.25
2022-10-12T09:44:32.393Z,12.18
2022-10-12T09:45:32.399Z,12.22
2022-10-12T09:46:32.339Z,12.31
2022-10-12T09:47:32.341Z,12.31
2022-10-12T09:48:32.349Z,12.34
2022-10-12T09:49:32.389Z,12.40
2022-10-12T09:50:32.325Z,12.37
2022-10-12T09:51:32.320Z,12.38
2022-10-12T09:52:32.317Z,12.44
2022-10-12T09:53:32.306Z,12.54
2022-10-12T09:54:32.384Z,12.62
2022-10-12T09:55:32.260Z,12.70
2022-10-12T09:56:32.287Z,12.79
2022-10-12T09:57:32.243Z,12.89
2022-10-12T09:58:32.225Z,13.06
2022-10-12T09:59:32.222Z,13.24
2022-10-12T10:00:32.233Z,13.36
2022-10-12T10:01:32.339Z,13.46
2022-10-12T10:02:32.175Z,13.57
2022-10-12T10:03:32.174Z,13.53
2022-10-12T10:04:32.206Z,13.41
2022-10-12T10:05:32.162Z,13.59
2022-10-12T10:06:32.123Z,13.55
2022-10-12T10:07:32.121Z,13.51
2022-10-12T10:08:32.134Z,13.36
2022-10-12T10:09:32.143Z,13.41
2022-10-12T10:10:32.135Z,13.41
2022-10-12T10:11:32.106Z,13.47
2022-10-12T10:12:32.093Z,13.54
2022-10-12T10:13:32.047Z,13.66
2022-10-12T10:14:32.117Z,13.63
2022-10-12T10:15:32.079Z,13.47
2022-10-12T10:16:32.019Z,13.41
2022-10-12T10:17:32.017Z,13.39
2022-10-12T10:18:31.988Z,13.48
2022-10-12T10:19:32.087Z,13.54
2022-10-12T10:20:32.008Z,13.57
2022-10-12T10:21:31.961Z,13.62
2022-10-12T10:22:31.958Z,13.69
2022-10-12T10:23:31.942Z,13.75
2022-10-12T10:24:31.944Z,13.79
2022-10-12T10:25:31.935Z,13.84
2022-10-12T10:26:31.933Z,13.84
2022-10-12T10:27:31.930Z,13.83
2022-10-12T10:28:31.975Z,13.88
2022-10-12T10:29:31.896Z,13.96
2022-10-12T10:30:35.163Z,14.16
2022-10-12T10:31:31.923Z,14.24
2022-10-12T10:32:31.881Z,14.31
2022-10-12T10:33:31.855Z,14.38
2022-10-12T10:34:31.893Z,14.13
2022-10-12T10:35:31.841Z,14.17
2022-10-12T10:36:31.857Z,14.13
2022-10-12T10:37:31.799Z,14.17
2022-10-12T10:38:31.787Z,14.29
2022-10-12T10:39:31.809Z,14.26
2022-10-12T10:40:31.761Z,14.13
2022-10-12T10:41:31.751Z,14.19
2022-10-12T10:42:31.742Z,14.30
2022-10-12T10:43:31.742Z,14.46
2022-10-12T10:44:31.812Z,14.49
2022-10-12T10:45:31.697Z,14.61
2022-10-12T10:46:31.698Z,14.82
2022-10-12T10:47:31.701Z,14.87
2022-10-12T10:48:31.668Z,14.95
2022-10-12T10:49:31.670Z,15.07
2022-10-12T10:50:31.641Z,15.18
2022-10-12T10:51:31.614Z,15.31
2022-10-12T10:52:31.630Z,15.34
2022-10-12T10:53:31.634Z,15.40
2022-10-12T10:54:31.634Z,15.31
2022-10-12T10:55:31.588Z,15.23
2022-10-12T10:56:31.582Z,15.31
2022-10-12T10:57:31.580Z,15.43
2022-10-12T10:58:31.574Z,15.49
2022-10-12T10:59:31.594Z,15.38
2022-10-12T11:00:39.123Z,15.37
2022-10-12T11:01:31.642Z,15.51
2022-10-12T11:02:31.548Z,15.70
2022-10-12T11:03:31.518Z,15.88
2022-10-12T11:04:31.666Z,15.92
2022-10-12T11:05:31.504Z,15.93
2022-10-12T11:06:31.488Z,15.89
2022-10-12T11:07:31.485Z,15.77
2022-10-12T11:08:31.439Z,15.88
2022-10-12T11:09:31.449Z,15.78
2022-10-12T11:10:31.454Z,15.84
2022-10-12T11:11:31.436Z,15.86
2022-10-12T11:12:31.661Z,15.93
2022-10-12T11:13:31.398Z,15.95
2022-10-12T11:14:31.396Z,15.93
2022-10-12T11:15:31.458Z,15.92
2022-10-12T11:16:31.358Z,15.93
2022-10-12T11:17:31.339Z,15.89
2022-10-12T11:18:31.358Z,15.84
2022-10-12T11:19:31.350Z,15.96
2022-10-12T11:20:31.341Z,15.96
2022-10-12T11:21:31.311Z,16.03
2022-10-12T11:22:31.324Z,16.06
2022-10-12T11:23:31.302Z,16.01
2022-10-12T11:24:31.307Z,16.14
2022-10-12T11:25:31.266Z,16.25
2022-10-12T11:26:31.242Z,16.29
2022-10-12T11:27:31.268Z,16.33
2022-10-12T11:28:31.324Z,16.41
2022-10-12T11:29:31.259Z,16.54
2022-10-12T11:30:31.204Z,16.54
2022-10-12T11:31:31.229Z,16.45
2022-10-12T11:32:31.165Z,16.36
2022-10-12T11:33:31.193Z,16.44
2022-10-12T11:34:31.188Z,16.51
2022-10-12T11:35:31.175Z,16.59
2022-10-12T11:36:31.123Z,16.57
2022-10-12T11:37:31.124Z,16.54
2022-10-12T11:38:31.102Z,16.59
2022-10-12T11:39:31.138Z,16.73
2022-10-12T11:40:55.588Z,16.88
2022-10-12T11:41:35.369Z,16.99
2022-10-12T11:42:31.081Z,17.02
2022-10-12T11:43:31.067Z,16.98
2022-10-12T11:44:31.071Z,17.00
2022-10-12T11:45:31.037Z,16.87
2022-10-12T11:46:31.004Z,16.75
2022-10-12T11:47:31.041Z,16.82
2022-10-12T11:48:31.038Z,16.85
2022-10-12T11:49:30.997Z,16.73
2022-10-12T11:50:31.004Z,16.70
2022-10-12T11:51:30.989Z,16.67
2022-10-12T11:52:30.994Z,16.72
2022-10-12T11:53:30.936Z,16.73
2022-10-12T11:54:30.985Z,16.73
2022-10-12T11:55:30.916Z,16.78
2022-10-12T11:56:30.995Z,16.81
2022-10-12T11:57:30.945Z,16.92
2022-10-12T11:58:55.859Z,16.95
2022-10-12T11:59:30.898Z,16.99
2022-10-12T12:00:30.901Z,17.05
2022-10-12T12:01:30.877Z,16.87
2022-10-12T12:02:30.859Z,16.90
2022-10-12T12:03:30.893Z,17.00
2022-10-12T12:04:46.371Z,17.10
2022-10-12T12:05:30.840Z,17.12
2022-10-12T12:06:30.801Z,17.27
2022-10-12T12:07:30.821Z,17.28
2022-10-12T12:08:30.838Z,17.28
2022-10-12T12:09:30.802Z,17.18
2022-10-12T12:10:30.775Z,17.18
2022-10-12T12:11:30.734Z,17.25
2022-10-12T12:12:30.716Z,17.30
2022-10-12T12:13:30.745Z,17.33
2022-10-12T12:14:30.740Z,17.33
2022-10-12T12:15:30.720Z,17.33
2022-10-12T12:16:30.692Z,17.35
2022-10-12T12:17:32.187Z,17.39
2022-10-12T12:18:30.694Z,17.36
2022-10-12T12:19:30.696Z,17.46
2022-10-12T12:20:30.649Z,17.58
2022-10-12T12:21:30.655Z,17.66
2022-10-12T12:22:30.640Z,17.51
2022-10-12T12:23:30.630Z,17.35
2022-10-12T12:24:30.726Z,16.95
2022-10-12T12:25:30.581Z,16.69
2022-10-12T12:26:30.583Z,16.65
2022-10-12T12:27:30.592Z,16.81
2022-10-12T12:28:30.578Z,16.99
2022-10-12T12:29:30.572Z,17.14
2022-10-12T12:30:30.575Z,17.15
2022-10-12T12:31:30.542Z,17.22
2022-10-12T12:32:30.536Z,17.33
2022-10-12T12:33:30.491Z,17.09
2022-10-12T12:34:30.682Z,16.90
2022-10-12T12:35:30.490Z,17.00
2022-10-12T12:36:30.514Z,16.88
2022-10-12T12:37:30.485Z,16.80
2022-10-12T12:38:30.468Z,16.88
2022-10-12T12:39:30.442Z,17.00
2022-10-12T12:40:30.441Z,16.99
2022-10-12T12:41:30.447Z,16.96
2022-10-12T12:42:30.412Z,17.12
2022-10-12T12:43:30.399Z,17.10
2022-10-12T12:44:30.419Z,17.21
2022-10-12T12:45:30.372Z,17.36
2022-10-12T12:46:30.456Z,17.36
2022-10-12T12:47:45.036Z,17.47
2022-10-12T12:48:30.352Z,17.51
2022-10-12T12:49:30.355Z,17.51
2022-10-12T12:50:30.312Z,17.53
2022-10-12T12:51:30.293Z,17.65
2022-10-12T12:52:30.281Z,17.71
2022-10-12T12:53:30.278Z,17.83
2022-10-12T12:54:30.273Z,17.92
2022-10-12T12:55:30.266Z,17.77
2022-10-12T12:56:30.244Z,17.62
2022-10-12T12:57:30.227Z,17.63
2022-10-12T12:58:30.220Z,17.62
2022-10-12T12:59:30.249Z,17.74
2022-10-12T13:00:31.732Z,17.91
2022-10-12T13:01:30.225Z,17.83
2022-10-12T13:02:30.186Z,17.79
2022-10-12T13:03:30.163Z,17.71
2022-10-12T13:04:30.180Z,17.63
2022-10-12T13:05:30.159Z,17.58
2022-10-12T13:06:30.170Z,17.40
2022-10-12T13:07:30.371Z,17.49
2022-10-12T13:08:30.169Z,17.57
2022-10-12T13:09:30.119Z,17.60
2022-10-12T13:10:30.075Z,17.73
2022-10-12T13:11:30.058Z,17.76
2022-10-12T13:12:30.068Z,17.77
2022-10-12T13:13:30.030Z,17.80
2022-10-12T13:14:30.194Z,17.87
2022-10-12T13:15:30.008Z,17.84
2022-10-12T13:17:23.331Z,17.86
2022-10-12T13:17:35.191Z,17.96
2022-10-12T13:18:46.431Z,18.02
2022-10-12T13:19:30.035Z,17.89
2022-10-12T13:20:29.968Z,17.79
2022-10-12T13:21:29.970Z,17.79
2022-10-12T13:22:30.291Z,17.91
2022-10-12T13:23:30.127Z,17.99
2022-10-12T13:24:29.974Z,17.77
2022-10-12T13:25:29.930Z,17.43
2022-10-12T13:26:29.908Z,17.46
2022-10-12T13:27:30.172Z,17.54
2022-10-12T13:28:29.924Z,17.58
2022-10-12T13:29:29.908Z,17.42
2022-10-12T13:30:29.856Z,17.27
2022-10-12T13:31:29.850Z,17.33
2022-10-12T13:32:30.028Z,17.43
2022-10-12T13:33:32.302Z,17.58
2022-10-12T13:34:29.833Z,17.71
2022-10-12T13:35:29.816Z,17.79
2022-10-12T13:36:29.823Z,17.81
2022-10-12T13:37:29.912Z,17.70
2022-10-12T13:38:29.779Z,17.76
2022-10-12T13:39:29.789Z,17.91
2022-10-12T13:40:29.898Z,17.96
2022-10-12T13:41:29.769Z,18.07
2022-10-12T13:42:29.717Z,18.09
2022-10-12T13:43:29.713Z,17.87
2022-10-12T13:44:29.712Z,17.81
2022-10-12T13:45:29.767Z,17.80
2022-10-12T13:46:29.710Z,17.84
2022-10-12T13:47:29.858Z,17.66
2022-10-12T13:48:57.563Z,17.70
2022-10-12T13:49:29.704Z,17.66
2022-10-12T13:50:29.640Z,17.65
2022-10-12T13:51:29.651Z,17.45
2022-10-12T13:52:32.278Z,17.38
2022-10-12T13:53:29.603Z,17.25
2022-10-12T13:54:29.669Z,17.09
2022-10-12T13:55:29.619Z,17.00
2022-10-12T13:56:29.566Z,16.82
2022-10-12T13:57:29.932Z,16.88
2022-10-12T13:58:29.537Z,17.07
2022-10-12T13:59:29.560Z,17.22
2022-10-12T14:00:29.565Z,17.36
2022-10-12T14:01:29.578Z,17.54
2022-10-12T14:02:29.519Z,17.45
2022-10-12T14:03:29.490Z,17.43
2022-10-12T14:04:29.649Z,17.53
2022-10-12T14:05:29.483Z,17.70
2022-10-12T14:06:29.465Z,17.81
2022-10-12T14:07:29.479Z,17.89
2022-10-12T14:08:29.437Z,17.95
2022-10-12T14:09:29.444Z,18.01
2022-10-12T14:10:29.408Z,18.05
2022-10-12T14:11:29.409Z,17.89
2022-10-12T14:12:29.406Z,17.95
2022-10-12T14:13:29.393Z,17.96
2022-10-12T14:14:29.376Z,18.10
2022-10-12T14:15:29.368Z,18.14
2022-10-12T14:16:29.371Z,18.01
2022-10-12T14:17:29.327Z,17.92
2022-10-12T14:18:29.340Z,17.86
2022-10-12T14:19:29.338Z,17.79
2022-10-12T14:20:29.330Z,17.70
2022-10-12T14:21:33.271Z,17.47
2022-10-12T14:22:29.286Z,17.25
2022-10-12T14:23:29.286Z,16.99
2022-10-12T14:24:29.266Z,16.84
2022-10-12T14:25:29.272Z,16.84
2022-10-12T14:26:29.239Z,16.75
2022-10-12T14:27:29.228Z,16.72
2022-10-12T14:28:29.275Z,16.84
2022-10-12T14:29:29.243Z,16.92
2022-10-12T14:30:29.221Z,17.02
2022-10-12T14:31:29.175Z,17.10
2022-10-12T14:32:29.196Z,17.27
2022-10-12T14:33:29.160Z,17.42
2022-10-12T14:34:29.190Z,17.43
2022-10-12T14:35:29.138Z,17.32
2022-10-12T14:36:29.126Z,17.36
2022-10-12T14:37:29.149Z,17.45
2022-10-12T14:38:29.093Z,17.62
2022-10-12T14:39:29.136Z,17.71
2022-10-12T14:40:29.141Z,17.70
2022-10-12T14:41:29.064Z,17.68
2022-10-12T14:42:29.086Z,17.66
2022-10-12T14:43:29.063Z,17.77
2022-10-12T14:44:29.083Z,17.74
2022-10-12T14:45:29.044Z,17.36
2022-10-12T14:46:29.033Z,17.32
2022-10-12T14:47:28.994Z,17.28
2022-10-12T14:48:28.965Z,17.24
2022-10-12T14:49:29.027Z,17.14
2022-10-12T14:50:28.989Z,17.05
2022-10-12T14:51:28.960Z,17.02
2022-10-12T14:52:28.961Z,16.90
2022-10-12T14:53:28.934Z,16.69
2022-10-12T14:54:28.960Z,16.62
2022-10-12T14:55:28.930Z,16.54
2022-10-12T14:56:28.903Z,16.45
2022-10-12T14:57:28.896Z,16.44
2022-10-12T14:58:28.912Z,16.40
2022-10-12T14:59:28.929Z,16.37
2022-10-12T15:00:28.866Z,16.36
2022-10-12T15:01:28.911Z,16.26
2022-10-12T15:02:28.831Z,16.23
2022-10-12T15:03:28.875Z,16.26
2022-10-12T15:04:29.032Z,16.22
2022-10-12T15:05:28.773Z,16.08
2022-10-12T15:06:28.804Z,16.10
2022-10-12T15:07:28.838Z,16.14
2022-10-12T15:08:28.796Z,16.23
2022-10-12T15:09:28.785Z,16.32
2022-10-12T15:10:28.736Z,16.34
2022-10-12T15:11:28.724Z,16.45
2022-10-12T15:12:28.731Z,16.57
2022-10-12T15:13:28.767Z,16.63
2022-10-12T15:14:28.719Z,16.75
2022-10-12T15:15:29.227Z,16.75
2022-10-12T15:16:28.712Z,16.77
2022-10-12T15:17:28.656Z,16.67
2022-10-12T15:18:28.649Z,16.67
2022-10-12T15:19:28.708Z,16.73
2022-10-12T15:20:28.641Z,16.85
2022-10-12T15:21:28.668Z,16.85
2022-10-12T15:22:28.640Z,16.88
2022-10-12T15:23:28.616Z,16.84
2022-10-12T15:24:28.641Z,16.82
2022-10-12T15:25:28.582Z,16.85
2022-10-12T15:26:28.562Z,16.91
2022-10-12T15:27:28.546Z,16.92
2022-10-12T15:28:28.646Z,16.98
2022-10-12T15:29:28.546Z,16.96
2022-10-12T15:30:28.537Z,16.99
2022-10-12T15:31:28.592Z,17.05
2022-10-12T15:32:28.476Z,17.07
2022-10-12T15:33:28.509Z,16.99
2022-10-12T15:34:28.514Z,16.91
2022-10-12T15:35:28.507Z,16.98
2022-10-12T15:36:28.441Z,17.02
2022-10-12T15:37:28.443Z,17.05
2022-10-12T15:38:28.457Z,17.07
2022-10-12T15:39:28.423Z,17.12
2022-10-12T15:40:28.476Z,17.14
2022-10-12T15:41:28.427Z,17.10
2022-10-12T15:42:28.404Z,17.03
2022-10-12T15:43:28.407Z,16.95
2022-10-12T15:44:28.381Z,16.81
2022-10-12T15:45:28.415Z,16.69
2022-10-12T15:46:28.335Z,16.62
2022-10-12T15:47:28.333Z,16.54
2022-10-12T15:48:28.343Z,16.47
2022-10-12T15:49:28.281Z,16.41
2022-10-12T15:50:28.304Z,16.30
2022-10-12T15:51:28.285Z,16.22
2022-10-12T15:52:28.289Z,16.14
2022-10-12T15:53:28.349Z,15.99
2022-10-12T15:54:28.287Z,15.74
2022-10-12T15:55:28.279Z,15.70
2022-10-12T15:56:28.240Z,15.73
2022-10-12T15:57:28.230Z,15.71
2022-10-12T15:58:28.216Z,15.71
2022-10-12T15:59:28.233Z,15.59
2022-10-12T16:00:28.240Z,15.53
2022-10-12T16:01:28.338Z,15.49
2022-10-12T16:02:28.148Z,15.44
2022-10-12T16:03:28.132Z,15.40
2022-10-12T16:04:28.157Z,15.37
2022-10-12T16:05:28.212Z,15.33
2022-10-12T16:06:28.116Z,15.30
2022-10-12T16:07:28.092Z,15.20
2022-10-12T16:08:28.086Z,15.15
2022-10-12T16:09:28.142Z,15.12
2022-10-12T16:10:28.110Z,15.12
2022-10-12T16:11:28.117Z,15.12
2022-10-12T16:12:28.047Z,15.13
2022-10-12T16:13:28.114Z,15.12
2022-10-12T16:14:28.035Z,15.11
2022-10-12T16:15:28.088Z,15.12
2022-10-12T16:16:27.990Z,15.07
2022-10-12T16:17:27.990Z,14.98
2022-10-12T16:18:28.813Z,14.85
2022-10-12T16:19:27.985Z,14.80
2022-10-12T16:20:28.032Z,14.78
2022-10-12T16:21:27.973Z,14.79
2022-10-12T16:22:27.948Z,14.82
2022-10-12T16:23:27.939Z,14.79
2022-10-12T16:24:27.907Z,14.74
2022-10-12T16:25:27.938Z,14.59
2022-10-12T16:26:27.923Z,14.54
2022-10-12T16:27:27.912Z,14.52
2022-10-12T16:28:27.924Z,14.52
2022-10-12T16:29:27.852Z,14.48
2022-10-12T16:30:27.906Z,14.46
2022-10-12T16:31:27.902Z,14.45
2022-10-12T16:32:27.829Z,14.46
2022-10-12T16:33:27.842Z,14.44
2022-10-12T16:34:27.872Z,14.39
2022-10-12T16:35:27.832Z,14.35
2022-10-12T16:36:27.760Z,14.36
2022-10-12T16:37:27.848Z,14.36
2022-10-12T16:38:28.267Z,14.35
2022-10-12T16:39:27.744Z,14.35
2022-10-12T16:40:27.805Z,14.34
2022-10-12T16:41:30.388Z,14.35
2022-10-12T16:42:27.716Z,14.31
2022-10-12T16:43:27.723Z,14.27
2022-10-12T16:44:27.696Z,14.27
2022-10-12T16:45:27.739Z,14.26
2022-10-12T16:46:27.662Z,14.20
2022-10-12T16:47:27.647Z,14.11
2022-10-12T16:48:27.639Z,14.06
2022-10-12T16:49:27.671Z,14.05
2022-10-12T16:50:27.647Z,14.06
2022-10-12T16:51:27.812Z,14.08
2022-10-12T16:52:28.412Z,14.05
2022-10-12T16:53:27.585Z,14.04
2022-10-12T16:54:27.638Z,13.99
2022-10-12T16:55:27.579Z,13.96
2022-10-12T16:56:27.539Z,13.90
2022-10-12T16:57:27.566Z,13.88
2022-10-12T16:58:27.578Z,13.88
2022-10-12T16:59:27.583Z,13.84
2022-10-12T17:00:27.840Z,13.83
2022-10-12T17:01:27.520Z,13.80
2022-10-12T17:02:27.513Z,13.76
2022-10-12T17:03:27.494Z,13.75
2022-10-12T17:04:27.534Z,13.73
2022-10-12T17:05:27.476Z,13.75
2022-10-12T17:06:27.440Z,13.71
2022-10-12T17:07:27.447Z,13.66
2022-10-12T17:08:27.398Z,13.59
2022-10-12T17:09:27.440Z,13.57
2022-10-12T17:10:27.443Z,13.54
2022-10-12T17:11:27.380Z,13.51
2022-10-12T17:12:27.377Z,13.47
2022-10-12T17:13:27.397Z,13.46
2022-10-12T17:14:27.415Z,13.44
2022-10-12T17:15:27.374Z,13.44
2022-10-12T17:16:27.387Z,13.44
2022-10-12T17:17:27.331Z,13.43
2022-10-12T17:18:27.325Z,13.38
2022-10-12T17:19:27.284Z,13.36
2022-10-12T17:20:27.311Z,13.31
2022-10-12T17:21:27.337Z,13.29
2022-10-12T17:22:27.283Z,13.27
2022-10-12T17:23:27.346Z,13.25
2022-10-12T17:24:27.269Z,13.25
2022-10-12T17:25:27.243Z,13.25
2022-10-12T17:26:27.260Z,13.24
2022-10-12T17:27:31.434Z,13.19
2022-10-12T17:28:27.277Z,13.16
2022-10-12T17:29:27.379Z,13.13
2022-10-12T17:30:27.209Z,13.12
2022-10-12T17:31:27.168Z,13.09
2022-10-12T17:32:27.169Z,13.03
2022-10-12T17:33:27.148Z,12.98
2022-10-12T17:34:27.146Z,12.95
2022-10-12T17:35:27.171Z,12.94
2022-10-12T17:36:28.450Z,12.92
2022-10-12T17:37:27.133Z,12.94
2022-10-12T17:38:27.069Z,12.89
2022-10-12T17:39:27.058Z,12.88
2022-10-12T17:40:27.108Z,12.85
2022-10-12T17:41:27.097Z,12.85
2022-10-12T17:42:27.093Z,12.80
2022-10-12T17:43:27.070Z,12.77
2022-10-12T17:44:27.080Z,12.70
2022-10-12T17:45:27.073Z,12.66
2022-10-12T17:46:27.060Z,12.62
2022-10-12T17:47:26.998Z,12.61
2022-10-12T17:48:27.004Z,12.59
2022-10-12T17:49:26.985Z,12.55
2022-10-12T17:50:27.014Z,12.52
2022-10-12T17:51:26.946Z,12.52
2022-10-12T17:52:26.945Z,12.48
2022-10-12T17:53:26.926Z,12.46
2022-10-12T17:54:26.911Z,12.46
2022-10-12T17:55:43.873Z,12.43
2022-10-12T17:56:26.887Z,12.40
2022-10-12T17:57:26.930Z,12.36
2022-10-12T17:58:26.874Z,12.33
2022-10-12T17:59:26.914Z,12.30
2022-10-12T18:00:26.905Z,12.25
2022-10-12T18:01:26.923Z,12.19
2022-10-12T18:02:26.835Z,12.16
2022-10-12T18:03:26.814Z,12.13
2022-10-12T18:04:26.815Z,12.07
2022-10-12T18:05:26.956Z,12.03
2022-10-12T18:06:26.772Z,12.00
2022-10-12T18:07:26.840Z,11.96
2022-10-12T18:08:26.802Z,11.90
2022-10-12T18:09:26.761Z,11.87
2022-10-12T18:10:28.535Z,11.85
2022-10-12T18:11:26.705Z,11.84
2022-10-12T18:12:26.720Z,11.81
2022-10-12T18:13:26.689Z,11.78
2022-10-12T18:14:26.667Z,11.77
2022-10-12T18:15:26.744Z,11.74
2022-10-12T18:16:26.655Z,11.70
2022-10-12T18:17:26.648Z,11.67
2022-10-12T18:18:26.651Z,11.63
2022-10-12T18:19:26.652Z,11.60
2022-10-12T18:20:26.644Z,11.56
2022-10-12T18:21:26.616Z,11.53
2022-10-12T18:22:26.615Z,11.49
2022-10-12T18:23:26.575Z,11.45
2022-10-12T18:24:26.558Z,11.42
2022-10-12T18:25:26.622Z,11.41
2022-10-12T18:26:26.530Z,11.38
2022-10-12T18:27:26.543Z,11.35
2022-10-12T18:28:26.597Z,11.33
2022-10-12T18:29:26.539Z,11.30
2022-10-12T18:30:26.548Z,11.30
2022-10-12T18:31:26.481Z,11.28
2022-10-12T18:32:26.475Z,11.28
2022-10-12T18:33:26.478Z,11.27
2022-10-12T18:34:26.464Z,11.27
2022-10-12T18:35:26.477Z,11.26
2022-10-12T18:36:26.452Z,11.26
2022-10-12T18:37:26.403Z,11.24
2022-10-12T18:38:26.437Z,11.23
2022-10-12T18:39:26.391Z,11.21
2022-10-12T18:40:26.425Z,11.20
2022-10-12T18:41:26.381Z,11.17
2022-10-12T18:42:26.346Z,11.13
2022-10-12T18:43:26.345Z,11.11
2022-10-12T18:44:26.327Z,11.06
2022-10-12T18:45:26.373Z,11.02
2022-10-12T18:46:26.327Z,10.98
2022-10-12T18:47:26.319Z,10.88
2022-10-12T18:48:26.321Z,10.84
2022-10-12T18:49:26.326Z,10.83
2022-10-12T18:50:26.298Z,10.83
2022-10-12T18:51:26.262Z,10.78
2022-10-12T18:52:26.246Z,10.78
2022-10-12T18:53:26.229Z,10.73
2022-10-12T18:54:26.252Z,10.72
2022-10-12T18:55:26.239Z,10.69
2022-10-12T18:56:26.198Z,10.68
2022-10-12T18:57:30.248Z,10.63
2022-10-12T18:58:26.205Z,10.57
2022-10-12T18:59:26.175Z,10.52
2022-10-12T19:00:26.180Z,10.51
2022-10-12T19:01:26.142Z,10.47
2022-10-12T19:02:26.144Z,10.46
2022-10-12T19:03:26.129Z,10.43
2022-10-12T19:04:26.101Z,10.42
2022-10-12T19:05:26.166Z,10.39
2022-10-12T19:06:26.103Z,10.38
2022-10-12T19:07:26.120Z,10.36
2022-10-12T19:08:26.086Z,10.35
2022-10-12T19:09:26.123Z,10.32
2022-10-12T19:10:26.103Z,10.29
2022-10-12T19:11:26.061Z,10.28
2022-10-12T19:12:26.032Z,10.25
2022-10-12T19:13:26.053Z,10.24
2022-10-12T19:14:25.989Z,10.20
2022-10-12T19:15:26.023Z,10.20
2022-10-12T19:16:26.010Z,10.16
2022-10-12T19:17:25.998Z,10.14
2022-10-12T19:18:25.956Z,10.13
2022-10-12T19:19:25.972Z,10.10
2022-10-12T19:20:25.966Z,10.09
2022-10-12T19:21:25.925Z,10.09
2022-10-12T19:22:25.944Z,10.09
2022-10-12T19:23:25.908Z,10.06
2022-10-12T19:24:25.913Z,10.04
2022-10-12T19:25:25.910Z,9.99
2022-10-12T19:26:25.868Z,9.99
2022-10-12T19:27:25.878Z,10.01
2022-10-12T19:28:25.913Z,9.99
2022-10-12T19:29:25.824Z,9.99
2022-10-12T19:30:25.882Z,10.01
2022-10-12T19:31:25.906Z,9.99
2022-10-12T19:32:25.829Z,9.98
2022-10-12T19:33:25.809Z,9.98
2022-10-12T19:34:25.829Z,9.96
2022-10-12T19:35:25.830Z,9.95
2022-10-12T19:36:25.783Z,9.96
2022-10-12T19:37:25.772Z,9.96
2022-10-12T19:38:25.745Z,9.96
2022-10-12T19:39:25.743Z,9.96
2022-10-12T19:40:25.751Z,9.95
2022-10-12T19:41:25.772Z,9.92
2022-10-12T19:42:25.780Z,9.92
2022-10-12T19:43:25.731Z,9.85
2022-10-12T19:44:25.657Z,9.81
2022-10-12T19:45:25.735Z,9.80
2022-10-12T19:46:26.468Z,9.81
2022-10-12T19:47:27.319Z,9.80